createdAt,value
2023-04-15T00:00:13.908Z,10.90
2023-04-15T00:01:19.269Z,10.90
2023-04-15T00:02:21.877Z,10.90
2023-04-15T00:03:25.129Z,10.90
2023-04-15T00:04:28.330Z,10.90
2023-04-15T00:05:31.153Z,10.90
2023-04-15T00:06:33.170Z,10.90
2023-04-15T00:07:34.858Z,10.90
2023-04-15T00:08:37.950Z,10.90
2023-04-15T00:09:39.847Z,10.90
2023-04-15T00:10:44.299Z,10.90
2023-04-15T00:11:47.448Z,10.80
2023-04-15T00:12:49.181Z,10.80
2023-04-15T00:13:51.611Z,10.80
2023-04-15T00:14:53.442Z,10.80
2023-04-15T00:15:55.169Z,10.80
2023-04-15T00:16:59.793Z,10.80
2023-04-15T00:18:02.551Z,10.80
2023-04-15T00:19:04.899Z,10.80
2023-04-15T00:20:07.033Z,10.80
2023-04-15T00:21:09.671Z,10.70
2023-04-15T00:22:12.433Z,10.70
2023-04-15T00:23:14.447Z,10.70
2023-04-15T00:24:16.577Z,10.70
2023-04-15T00:25:18.614Z,10.70
2023-04-15T00:26:20.832Z,10.60
2023-04-15T00:27:22.860Z,10.60
2023-04-15T00:28:24.651Z,10.60
2023-04-15T00:29:26.634Z,10.60
2023-04-15T00:30:28.342Z,10.60
2023-04-15T00:31:31.400Z,10.60
2023-04-15T00:32:33.130Z,10.60
2023-04-15T00:33:36.676Z,10.60
2023-04-15T00:34:38.429Z,10.60
2023-04-15T00:35:40.855Z,10.60
2023-04-15T00:36:42.586Z,10.50
2023-04-15T00:37:46.420Z,10.50
2023-04-15T00:38:48.269Z,10.60
2023-04-15T00:39:50.461Z,10.60
2023-04-15T00:40:53.334Z,10.60
2023-04-15T00:41:55.955Z,10.60
2023-04-15T00:42:57.734Z,10.60
2023-04-15T00:44:00.528Z,10.50
2023-04-15T00:45:03.049Z,10.60
2023-04-15T00:46:05.978Z,10.60
2023-04-15T00:47:08.836Z,10.60
2023-04-15T00:48:12.199Z,10.60
2023-04-15T00:49:14.176Z,10.60
2023-04-15T00:50:15.862Z,10.50
2023-04-15T00:51:17.707Z,10.50
2023-04-15T00:52:19.408Z,10.50
2023-04-15T00:53:21.151Z,10.50
2023-04-15T00:54:23.302Z,10.50
2023-04-15T00:55:25.608Z,10.50
2023-04-15T00:56:28.850Z,10.40
2023-04-15T00:57:31.732Z,10.40
2023-04-15T00:58:33.941Z,10.40
2023-04-15T00:59:36.241Z,10.40
2023-04-15T01:00:38.313Z,10.40
2023-04-15T01:01:41.281Z,10.40
2023-04-15T01:02:43.074Z,10.40
2023-04-15T01:03:46.341Z,10.30
2023-04-15T01:04:48.533Z,10.30
2023-04-15T01:05:50.599Z,10.30
2023-04-15T01:06:52.282Z,10.30
2023-04-15T01:07:55.017Z,10.30
2023-04-15T01:08:58.024Z,10.30
2023-04-15T01:10:00.184Z,10.30
2023-04-15T01:11:03.604Z,10.30
2023-04-15T01:12:07.209Z,10.20
2023-04-15T01:13:09.556Z,10.20
2023-04-15T01:14:11.497Z,10.20
2023-04-15T01:15:13.142Z,10.20
2023-04-15T01:16:18.389Z,10.20
2023-04-15T01:17:21.652Z,10.20
2023-04-15T01:18:24.430Z,10.20
2023-04-15T01:19:26.427Z,10.20
2023-04-15T01:20:29.741Z,10.20
2023-04-15T01:21:31.519Z,10.20
2023-04-15T01:22:34.431Z,10.20
2023-04-15T01:23:38.574Z,10.20
2023-04-15T01:24:41.257Z,10.20
2023-04-15T01:25:44.433Z,10.20
2023-04-15T01:26:46.834Z,10.20
2023-04-15T01:27:48.556Z,10.20
2023-04-15T01:28:50.785Z,10.20
2023-04-15T01:29:52.846Z,10.10
2023-04-15T01:31:08.035Z,10.10
2023-04-15T01:32:09.725Z,10.10
2023-04-15T01:33:11.473Z,10.10
2023-04-15T01:34:13.264Z,10.10
2023-04-15T01:35:15.147Z,10.10
2023-04-15T01:36:16.827Z,10.10
2023-04-15T01:37:18.539Z,10.10
2023-04-15T01:38:20.530Z,10.10
2023-04-15T01:39:22.747Z,10.10
2023-04-15T01:40:25.307Z,10.10
2023-04-15T01:41:28.438Z,10.10
2023-04-15T01:42:30.089Z,10.00
2023-04-15T01:43:32.480Z,10.00
2023-04-15T01:44:34.330Z,10.00
2023-04-15T01:45:36.341Z,10.00
2023-04-15T01:46:38.128Z,10.00
2023-04-15T01:47:39.983Z,10.00
2023-04-15T01:48:42.018Z,10.00
2023-04-15T01:49:43.666Z,9.90
2023-04-15T01:50:45.801Z,10.00
2023-04-15T01:51:47.742Z,10.00
2023-04-15T01:52:49.633Z,9.90
2023-04-15T01:53:52.324Z,10.00
2023-04-15T01:54:55.321Z,9.90
2023-04-15T01:55:57.257Z,10.00
2023-04-15T01:56:58.940Z,9.90
2023-04-15T01:58:01.311Z,10.00
2023-04-15T01:59:03.907Z,9.90
2023-04-15T02:00:07.920Z,10.00
2023-04-15T02:01:11.747Z,9.90
2023-04-15T02:02:13.549Z,9.90
2023-04-15T02:03:15.469Z,9.90
2023-04-15T02:04:17.497Z,9.90
2023-04-15T02:05:19.187Z,9.90
2023-04-15T02:06:21.223Z,9.90
2023-04-15T02:07:23.902Z,9.90
2023-04-15T02:08:25.655Z,9.90
2023-04-15T02:09:27.312Z,9.80
2023-04-15T02:10:29.176Z,9.80
2023-04-15T02:11:30.831Z,9.80
2023-04-15T02:12:32.523Z,9.80
2023-04-15T02:13:34.655Z,9.80
2023-04-15T02:14:36.384Z,9.70
2023-04-15T02:15:38.065Z,9.70
2023-04-15T02:16:39.814Z,9.70
2023-04-15T02:17:45.768Z,9.70
2023-04-15T02:18:48.016Z,9.70
2023-04-15T02:19:49.721Z,9.70
2023-04-15T02:20:52.499Z,9.70
2023-04-15T02:21:54.181Z,9.70
2023-04-15T02:22:56.896Z,9.70
2023-04-15T02:23:58.783Z,9.70
2023-04-15T02:25:00.907Z,9.60
2023-04-15T02:26:02.643Z,9.60
2023-04-15T02:27:04.497Z,9.60
2023-04-15T02:28:07.105Z,9.50
2023-04-15T02:29:08.758Z,9.50
2023-04-15T02:30:11.064Z,9.50
2023-04-15T02:31:12.844Z,9.40
2023-04-15T02:32:14.616Z,9.40
2023-04-15T02:33:16.519Z,9.40
2023-04-15T02:34:18.199Z,9.40
2023-04-15T02:35:20.044Z,9.40
2023-04-15T02:36:21.946Z,9.40
2023-04-15T02:37:24.739Z,9.40
2023-04-15T02:38:26.557Z,9.40
2023-04-15T02:39:28.305Z,9.40
2023-04-15T02:40:30.030Z,9.40
2023-04-15T02:41:31.858Z,9.30
2023-04-15T02:42:33.651Z,9.30
2023-04-15T02:43:35.554Z,9.30
2023-04-15T02:44:37.733Z,9.40
2023-04-15T02:45:39.561Z,9.40
2023-04-15T02:46:41.403Z,9.40
2023-04-15T02:47:44.083Z,9.40
2023-04-15T02:48:46.042Z,9.40
2023-04-15T02:49:48.059Z,9.40
2023-04-15T02:50:49.785Z,9.40
2023-04-15T02:51:51.791Z,9.40
2023-04-15T02:52:53.567Z,9.40
2023-04-15T02:53:55.241Z,9.40
2023-04-15T02:55:01.292Z,9.40
2023-04-15T02:56:03.663Z,9.30
2023-04-15T02:57:06.822Z,9.30
2023-04-15T02:58:08.775Z,9.30
2023-04-15T02:59:10.499Z,9.30
2023-04-15T03:00:12.861Z,9.30
2023-04-15T03:01:14.883Z,9.20
2023-04-15T03:02:16.782Z,9.20
2023-04-15T03:03:18.803Z,9.20
2023-04-15T03:04:20.939Z,9.10
2023-04-15T03:05:25.712Z,9.10
2023-04-15T03:06:27.422Z,9.10
2023-04-15T03:07:29.254Z,9.10
2023-04-15T03:08:31.434Z,9.10
2023-04-15T03:09:33.194Z,9.10
2023-04-15T03:10:36.604Z,9.10
2023-04-15T03:11:40.753Z,9.10
2023-04-15T03:12:42.461Z,9.20
2023-04-15T03:13:44.360Z,9.20
2023-04-15T03:14:46.150Z,9.20
2023-04-15T03:15:48.477Z,9.20
2023-04-15T03:16:52.035Z,9.20
2023-04-15T03:17:53.831Z,9.20
2023-04-15T03:18:55.889Z,9.20
2023-04-15T03:19:57.834Z,9.20
2023-04-15T03:20:59.931Z,9.20
2023-04-15T03:22:01.657Z,9.20
2023-04-15T03:23:03.434Z,9.20
2023-04-15T03:24:05.520Z,9.20
2023-04-15T03:25:07.963Z,9.10
2023-04-15T03:26:10.689Z,9.10
2023-04-15T03:27:13.231Z,9.10
2023-04-15T03:28:14.882Z,9.10
2023-04-15T03:29:16.668Z,9.10
2023-04-15T03:30:18.372Z,9.10
2023-04-15T03:31:20.039Z,9.10
2023-04-15T03:32:21.697Z,9.10
2023-04-15T03:33:23.783Z,9.10
2023-04-15T03:34:26.020Z,9.10
2023-04-15T03:35:27.737Z,9.20
2023-04-15T03:36:32.290Z,9.20
2023-04-15T03:37:34.366Z,9.10
2023-04-15T03:38:36.087Z,9.10
2023-04-15T03:39:38.043Z,9.10
2023-04-15T03:40:41.800Z,9.20
2023-04-15T03:41:43.537Z,9.20
2023-04-15T03:42:45.496Z,9.10
2023-04-15T03:43:47.541Z,9.10
2023-04-15T03:44:49.509Z,9.10
2023-04-15T03:45:51.308Z,9.20
2023-04-15T03:46:53.506Z,9.20
2023-04-15T03:47:55.718Z,9.10
2023-04-15T03:48:57.781Z,9.10
2023-04-15T03:49:59.515Z,9.10
2023-04-15T03:51:01.530Z,9.10
2023-04-15T03:52:03.284Z,9.10
2023-04-15T03:53:04.979Z,9.00
2023-04-15T03:54:07.028Z,9.00
2023-04-15T03:55:09.967Z,8.90
2023-04-15T03:56:11.771Z,8.90
2023-04-15T03:57:13.394Z,8.90
2023-04-15T03:58:15.520Z,8.90
2023-04-15T03:59:17.188Z,8.90
2023-04-15T04:00:19.740Z,8.90
2023-04-15T04:01:21.452Z,8.90
2023-04-15T04:02:23.438Z,8.90
2023-04-15T04:03:25.727Z,8.90
2023-04-15T04:04:27.695Z,9.00
2023-04-15T04:05:29.684Z,8.90
2023-04-15T04:06:31.623Z,8.90
2023-04-15T04:07:33.265Z,9.00
2023-04-15T04:08:34.986Z,9.00
2023-04-15T04:09:39.828Z,9.00
2023-04-15T04:10:41.916Z,9.00
2023-04-15T04:11:43.926Z,9.00
2023-04-15T04:12:45.800Z,9.00
2023-04-15T04:13:47.601Z,9.00
2023-04-15T04:14:49.391Z,9.00
2023-04-15T04:15:51.251Z,9.00
2023-04-15T04:17:07.432Z,9.00
2023-04-15T04:18:10.380Z,9.00
2023-04-15T04:19:12.300Z,9.00
2023-04-15T04:20:14.173Z,9.00
2023-04-15T04:21:16.371Z,9.00
2023-04-15T04:22:18.124Z,9.00
2023-04-15T04:23:20.060Z,9.00
2023-04-15T04:24:21.806Z,9.00
2023-04-15T04:25:24.522Z,9.00
2023-04-15T04:26:26.310Z,9.00
2023-04-15T04:27:28.074Z,9.00
2023-04-15T04:28:29.733Z,9.00
2023-04-15T04:29:31.522Z,9.00
2023-04-15T04:30:33.329Z,9.00
2023-04-15T04:31:35.238Z,9.00
2023-04-15T04:32:37.167Z,9.00
2023-04-15T04:33:38.866Z,8.90
2023-04-15T04:34:40.598Z,9.00
2023-04-15T04:35:42.314Z,9.00
2023-04-15T04:36:44.426Z,9.00
2023-04-15T04:37:46.125Z,9.00
2023-04-15T04:38:47.782Z,8.90
2023-04-15T04:39:49.584Z,8.90
2023-04-15T04:40:51.261Z,8.90
2023-04-15T04:41:52.955Z,8.90
2023-04-15T04:42:54.671Z,8.80
2023-04-15T04:43:56.572Z,8.80
2023-04-15T04:44:58.408Z,8.70
2023-04-15T04:46:00.480Z,8.70
2023-04-15T04:47:02.279Z,8.60
2023-04-15T04:48:07.312Z,8.60
2023-04-15T04:49:10.488Z,8.50
2023-04-15T04:50:12.407Z,8.50
2023-04-15T04:51:14.101Z,8.40
2023-04-15T04:52:15.851Z,8.40
2023-04-15T04:53:18.116Z,8.30
2023-04-15T04:54:19.786Z,8.30
2023-04-15T04:55:21.471Z,8.20
2023-04-15T04:56:23.255Z,8.20
2023-04-15T04:57:24.957Z,8.20
2023-04-15T04:58:27.335Z,8.20
2023-04-15T04:59:28.993Z,8.10
2023-04-15T05:00:30.994Z,8.20
2023-04-15T05:01:32.743Z,8.10
2023-04-15T05:02:35.147Z,8.20
2023-04-15T05:03:37.989Z,8.10
2023-04-15T05:04:39.737Z,8.10
2023-04-15T05:05:41.911Z,8.10
2023-04-15T05:06:45.117Z,8.00
2023-04-15T05:07:47.692Z,8.00
2023-04-15T05:08:49.376Z,7.90
2023-04-15T05:09:52.164Z,7.90
2023-04-15T05:10:53.979Z,7.90
2023-04-15T05:11:57.134Z,7.80
2023-04-15T05:12:59.416Z,7.80
2023-04-15T05:14:02.245Z,7.80
2023-04-15T05:15:04.722Z,7.70
2023-04-15T05:16:06.937Z,7.70
2023-04-15T05:17:09.848Z,7.70
2023-04-15T05:18:11.556Z,7.70
2023-04-15T05:19:13.237Z,7.70
2023-04-15T05:20:15.645Z,7.70
2023-04-15T05:21:17.406Z,7.70
2023-04-15T05:22:19.160Z,7.70
2023-04-15T05:23:20.947Z,7.70
2023-04-15T05:24:23.148Z,7.70
2023-04-15T05:25:24.881Z,7.70
2023-04-15T05:26:27.569Z,7.70
2023-04-15T05:27:29.262Z,7.70
2023-04-15T05:28:31.016Z,7.70
2023-04-15T05:29:32.656Z,7.70
2023-04-15T05:30:34.372Z,7.60
2023-04-15T05:31:36.811Z,7.60
2023-04-15T05:32:38.681Z,7.60
2023-04-15T05:33:40.610Z,7.60
2023-04-15T05:34:42.296Z,7.60
2023-04-15T05:35:43.921Z,7.60
2023-04-15T05:36:45.875Z,7.70
2023-04-15T05:37:47.546Z,7.70
2023-04-15T05:38:49.174Z,7.70
2023-04-15T05:39:51.210Z,7.70
2023-04-15T05:40:52.864Z,7.70
2023-04-15T05:41:54.590Z,7.70
2023-04-15T05:42:56.564Z,7.70
2023-04-15T05:43:58.247Z,7.60
2023-04-15T05:44:59.966Z,7.60
2023-04-15T05:46:01.684Z,7.60
2023-04-15T05:47:03.691Z,7.60
2023-04-15T05:48:05.454Z,7.60
2023-04-15T05:49:07.099Z,7.70
2023-04-15T05:50:09.386Z,7.60
2023-04-15T05:51:11.740Z,7.60
2023-04-15T05:52:13.423Z,7.60
2023-04-15T05:53:16.007Z,7.60
2023-04-15T05:54:20.151Z,7.60
2023-04-15T05:55:22.198Z,7.60
2023-04-15T05:56:23.864Z,7.50
2023-04-15T05:57:25.672Z,7.50
2023-04-15T05:58:27.613Z,7.50
2023-04-15T05:59:29.441Z,7.50
2023-04-15T06:00:31.189Z,7.50
2023-04-15T06:01:34.202Z,7.50
2023-04-15T06:02:36.469Z,7.50
2023-04-15T06:03:39.071Z,7.60
2023-04-15T06:04:40.905Z,7.60
2023-04-15T06:05:45.014Z,7.60
2023-04-15T06:06:47.492Z,7.70
2023-04-15T06:07:49.956Z,7.80
2023-04-15T06:08:52.335Z,7.80
2023-04-15T06:09:54.137Z,7.90
2023-04-15T06:10:55.969Z,7.90
2023-04-15T06:11:59.051Z,8.00
2023-04-15T06:13:01.113Z,8.00
2023-04-15T06:14:02.825Z,8.10
2023-04-15T06:15:07.025Z,8.10
2023-04-15T06:16:08.734Z,8.20
2023-04-15T06:17:11.874Z,8.10
2023-04-15T06:18:13.934Z,8.20
2023-04-15T06:19:16.032Z,8.30
2023-04-15T06:20:17.761Z,8.40
2023-04-15T06:21:20.412Z,8.40
2023-04-15T06:22:23.265Z,8.50
2023-04-15T06:23:26.945Z,8.60
2023-04-15T06:24:30.061Z,8.70
2023-04-15T06:25:31.963Z,8.80
2023-04-15T06:26:33.840Z,8.80
2023-04-15T06:27:35.680Z,8.90
2023-04-15T06:28:37.568Z,8.90
2023-04-15T06:29:39.424Z,8.90
2023-04-15T06:30:41.237Z,8.90
2023-04-15T06:31:43.078Z,8.90
2023-04-15T06:32:45.124Z,8.90
2023-04-15T06:33:47.028Z,8.90
2023-04-15T06:34:48.871Z,8.90
2023-04-15T06:35:51.291Z,9.00
2023-04-15T06:36:54.729Z,9.00
2023-04-15T06:37:56.803Z,9.00
2023-04-15T06:38:59.152Z,9.00
2023-04-15T06:40:01.602Z,9.00
2023-04-15T06:41:04.684Z,9.00
2023-04-15T06:42:07.117Z,9.10
2023-04-15T06:43:10.414Z,9.10
2023-04-15T06:44:14.345Z,9.10
2023-04-15T06:45:16.207Z,9.10
2023-04-15T06:46:18.176Z,9.10
2023-04-15T06:47:20.095Z,9.10
2023-04-15T06:48:22.168Z,9.10
2023-04-15T06:49:24.193Z,9.10
2023-04-15T06:50:26.091Z,9.10
2023-04-15T06:51:27.880Z,9.20
2023-04-15T06:52:29.762Z,9.20
2023-04-15T06:53:31.636Z,9.20
2023-04-15T06:54:33.503Z,9.20
2023-04-15T06:55:35.592Z,9.20
2023-04-15T06:56:37.890Z,9.30
2023-04-15T06:57:39.761Z,9.30
2023-04-15T06:58:41.572Z,9.40
2023-04-15T06:59:43.753Z,9.40
2023-04-15T07:00:46.238Z,9.40
2023-04-15T07:01:48.049Z,9.40
2023-04-15T07:02:49.937Z,9.40
2023-04-15T07:03:51.866Z,9.40
2023-04-15T07:04:53.614Z,9.40
2023-04-15T07:05:55.391Z,9.40
2023-04-15T07:06:57.526Z,9.40
2023-04-15T07:07:59.366Z,9.40
2023-04-15T07:09:02.133Z,9.40
2023-04-15T07:10:04.548Z,9.50
2023-04-15T07:11:06.766Z,9.50
2023-04-15T07:12:08.880Z,9.50
2023-04-15T07:13:11.206Z,9.60
2023-04-15T07:14:13.342Z,9.60
2023-04-15T07:15:15.433Z,9.60
2023-04-15T07:16:17.499Z,9.60
2023-04-15T07:17:19.876Z,9.60
2023-04-15T07:18:21.913Z,9.70
2023-04-15T07:19:24.206Z,9.60
2023-04-15T07:20:26.103Z,9.70
2023-04-15T07:21:28.094Z,9.70
2023-04-15T07:22:29.829Z,9.70
2023-04-15T07:23:31.823Z,9.70
2023-04-15T07:24:33.921Z,9.80
2023-04-15T07:25:35.641Z,9.80
2023-04-15T07:26:37.378Z,9.80
2023-04-15T07:27:39.811Z,9.90
2023-04-15T07:28:41.959Z,9.90
2023-04-15T07:29:44.039Z,9.90
2023-04-15T07:30:45.777Z,10.00
2023-04-15T07:31:47.480Z,10.00
2023-04-15T07:32:49.377Z,10.00
2023-04-15T07:33:52.285Z,10.00
2023-04-15T07:34:54.140Z,10.10
2023-04-15T07:35:58.535Z,10.10
2023-04-15T07:37:00.167Z,10.10
2023-04-15T07:38:02.460Z,10.20
2023-04-15T07:39:04.523Z,10.20
2023-04-15T07:40:07.585Z,10.30
2023-04-15T07:41:09.646Z,10.30
2023-04-15T07:42:11.399Z,10.40
2023-04-15T07:43:13.992Z,10.50
2023-04-15T07:44:15.848Z,10.60
2023-04-15T07:45:17.708Z,10.60
2023-04-15T07:46:19.604Z,10.70
2023-04-15T07:47:22.313Z,10.70
2023-04-15T07:48:24.350Z,10.80
2023-04-15T07:49:26.214Z,10.90
2023-04-15T07:50:28.677Z,10.90
2023-04-15T07:51:32.313Z,10.90
2023-04-15T07:52:39.159Z,11.00
2023-04-15T07:53:41.028Z,11.00
2023-04-15T07:54:42.708Z,11.00
2023-04-15T07:55:44.436Z,11.10
2023-04-15T07:56:46.284Z,11.10
2023-04-15T07:57:49.237Z,11.20
2023-04-15T07:58:51.122Z,11.00
2023-04-15T07:59:52.813Z,11.00
2023-04-15T08:00:55.289Z,11.00
2023-04-15T08:01:57.585Z,11.00
2023-04-15T08:03:00.180Z,11.00
2023-04-15T08:04:02.827Z,11.00
2023-04-15T08:05:05.215Z,11.10
2023-04-15T08:06:07.125Z,11.10
2023-04-15T08:07:09.036Z,11.10
2023-04-15T08:08:11.917Z,11.10
2023-04-15T08:09:13.847Z,11.10
2023-04-15T08:10:15.591Z,11.20
2023-04-15T08:11:17.708Z,11.10
2023-04-15T08:12:19.442Z,11.20
2023-04-15T08:13:21.811Z,11.20
2023-04-15T08:14:24.650Z,11.30
2023-04-15T08:15:29.570Z,11.30
2023-04-15T08:16:32.035Z,11.40
2023-04-15T08:17:35.686Z,11.40
2023-04-15T08:18:37.878Z,11.50
2023-04-15T08:19:41.246Z,11.80
2023-04-15T08:20:43.373Z,11.70
2023-04-15T08:21:45.222Z,11.70
2023-04-15T08:22:52.083Z,11.80
2023-04-15T08:23:54.697Z,11.90
2023-04-15T08:24:56.871Z,11.90
2023-04-15T08:25:58.746Z,12.00
2023-04-15T08:27:01.972Z,12.00
2023-04-15T08:28:07.545Z,12.00
2023-04-15T08:29:09.756Z,12.10
2023-04-15T08:30:13.088Z,12.10
2023-04-15T08:31:16.565Z,12.10
2023-04-15T08:32:19.230Z,12.10
2023-04-15T08:33:21.859Z,12.20
2023-04-15T08:34:24.278Z,12.30
2023-04-15T08:35:26.109Z,12.30
2023-04-15T08:36:29.146Z,12.30
2023-04-15T08:37:31.384Z,12.40
2023-04-15T08:38:33.801Z,12.40
2023-04-15T08:39:35.883Z,12.40
2023-04-15T08:40:45.620Z,12.50
2023-04-15T08:42:09.490Z,12.50
2023-04-15T08:43:33.200Z,12.60
2023-04-15T08:44:37.203Z,12.70
2023-04-15T08:45:40.066Z,12.70
2023-04-15T08:46:45.217Z,12.70
2023-04-15T08:47:51.928Z,12.80
2023-04-15T08:48:56.994Z,12.80
2023-04-15T08:49:59.760Z,12.80
2023-04-15T08:51:02.243Z,12.90
2023-04-15T08:52:04.457Z,12.90
2023-04-15T08:53:06.651Z,13.10
2023-04-15T08:54:12.391Z,13.00
2023-04-15T08:55:15.427Z,13.00
2023-04-15T08:56:18.208Z,13.10
2023-04-15T08:57:20.367Z,13.10
2023-04-15T08:58:22.532Z,13.10
2023-04-15T08:59:24.974Z,13.10
2023-04-15T09:00:27.819Z,13.20
2023-04-15T09:01:30.692Z,13.20
2023-04-15T09:02:32.987Z,13.40
2023-04-15T09:03:36.102Z,13.30
2023-04-15T09:04:37.887Z,13.30
2023-04-15T09:05:40.246Z,13.30
2023-04-15T09:06:42.332Z,13.40
2023-04-15T09:07:44.401Z,13.40
2023-04-15T09:08:47.913Z,13.50
2023-04-15T09:09:50.317Z,13.60
2023-04-15T09:10:53.939Z,13.70
2023-04-15T09:11:57.101Z,13.70
2023-04-15T09:13:00.819Z,13.80
2023-04-15T09:14:02.622Z,13.90
2023-04-15T09:15:04.787Z,13.90
2023-04-15T09:16:08.478Z,14.00
2023-04-15T09:17:12.164Z,14.00
2023-04-15T09:18:26.846Z,14.10
2023-04-15T09:19:29.240Z,14.10
2023-04-15T09:20:30.983Z,14.20
2023-04-15T09:21:33.707Z,14.20
2023-04-15T09:22:36.616Z,14.30
2023-04-15T09:23:53.705Z,14.40
2023-04-15T09:24:56.361Z,14.40
2023-04-15T09:25:58.262Z,14.50
2023-04-15T09:27:00.614Z,14.60
2023-04-15T09:28:02.981Z,14.60
2023-04-15T09:29:06.747Z,14.70
2023-04-15T09:30:09.394Z,14.70
2023-04-15T09:31:11.179Z,14.80
2023-04-15T09:32:14.450Z,14.90
2023-04-15T09:33:17.417Z,14.90
2023-04-15T09:34:19.716Z,15.00
2023-04-15T09:35:22.615Z,15.00
2023-04-15T09:36:25.238Z,15.10
2023-04-15T09:37:36.866Z,15.10
2023-04-15T09:38:56.278Z,15.20
2023-04-15T09:39:57.944Z,15.20
2023-04-15T09:40:59.871Z,15.30
2023-04-15T09:42:06.923Z,15.30
2023-04-15T09:43:13.006Z,15.30
2023-04-15T09:44:27.733Z,15.30
2023-04-15T09:45:30.140Z,15.30
2023-04-15T09:46:43.147Z,15.30
2023-04-15T09:47:44.968Z,15.30
2023-04-15T09:48:47.236Z,15.30
2023-04-15T09:49:59.903Z,15.30
2023-04-15T09:51:02.367Z,15.30
2023-04-15T09:52:06.123Z,15.30
2023-04-15T09:53:11.755Z,15.30
2023-04-15T09:54:14.774Z,15.30
2023-04-15T09:55:18.701Z,15.30
2023-04-15T09:56:23.074Z,15.30
2023-04-15T09:57:25.390Z,15.30
2023-04-15T09:58:28.776Z,15.30
2023-04-15T09:59:30.410Z,15.30
2023-04-15T10:00:33.392Z,15.30
2023-04-15T10:01:36.237Z,15.40
2023-04-15T10:02:40.703Z,15.40
2023-04-15T10:03:42.664Z,15.40
2023-04-15T10:04:45.449Z,15.40
2023-04-15T10:05:52.662Z,15.50
2023-04-15T10:06:54.436Z,15.50
2023-04-15T10:07:56.598Z,15.70
2023-04-15T10:08:58.764Z,15.60
2023-04-15T10:10:02.358Z,15.60
2023-04-15T10:11:04.978Z,15.60
2023-04-15T10:12:07.403Z,15.60
2023-04-15T10:13:10.972Z,15.60
2023-04-15T10:14:16.106Z,15.60
2023-04-15T10:15:19.594Z,15.60
2023-04-15T10:16:23.210Z,15.60
2023-04-15T10:17:31.113Z,15.70
2023-04-15T10:18:36.224Z,15.70
2023-04-15T10:19:38.322Z,15.70
2023-04-15T10:20:41.312Z,15.70
2023-04-15T10:21:45.107Z,15.70
2023-04-15T10:22:47.356Z,15.70
2023-04-15T10:23:50.084Z,15.70
2023-04-15T10:24:52.574Z,15.80
2023-04-15T10:25:54.965Z,15.80
2023-04-15T10:26:57.275Z,15.80
2023-04-15T10:27:59.847Z,15.80
2023-04-15T10:29:02.532Z,15.80
2023-04-15T10:30:05.559Z,15.80
2023-04-15T10:31:07.830Z,15.80
2023-04-15T10:32:10.713Z,15.80
2023-04-15T10:33:13.012Z,15.90
2023-04-15T10:34:16.087Z,15.90
2023-04-15T10:35:18.702Z,16.00
2023-04-15T10:36:21.078Z,16.00
2023-04-15T10:37:33.703Z,16.00
2023-04-15T10:38:47.014Z,16.00
2023-04-15T10:39:49.465Z,16.00
2023-04-15T10:40:51.762Z,16.00
2023-04-15T10:42:15.369Z,15.90
2023-04-15T10:43:27.032Z,15.90
2023-04-15T10:44:28.708Z,15.90
2023-04-15T10:45:39.475Z,16.00
2023-04-15T10:46:45.230Z,16.00
2023-04-15T10:47:51.554Z,16.00
2023-04-15T10:48:54.303Z,16.00
2023-04-15T10:50:01.676Z,16.10
2023-04-15T10:51:03.759Z,16.10
2023-04-15T10:52:08.383Z,16.10
2023-04-15T10:53:10.894Z,16.10
2023-04-15T10:54:17.615Z,16.20
2023-04-15T10:55:22.726Z,16.20
2023-04-15T10:56:24.506Z,16.20
2023-04-15T10:57:36.264Z,16.20
2023-04-15T10:58:43.313Z,16.20
2023-04-15T11:00:10.736Z,16.20
2023-04-15T11:01:13.789Z,16.30
2023-04-15T11:02:16.182Z,16.30
2023-04-15T11:03:34.698Z,16.30
2023-04-15T11:04:56.273Z,16.20
2023-04-15T11:05:58.589Z,16.20
2023-04-15T11:07:07.271Z,16.20
2023-04-15T11:08:13.703Z,16.20
2023-04-15T11:09:35.201Z,16.20
2023-04-15T11:10:39.893Z,16.20
2023-04-15T11:12:09.969Z,16.20
2023-04-15T11:13:11.820Z,16.20
2023-04-15T11:14:20.960Z,16.30
2023-04-15T11:15:33.633Z,16.30
2023-04-15T11:16:48.194Z,16.40
2023-04-15T11:17:52.514Z,16.50
2023-04-15T11:18:55.963Z,16.50
2023-04-15T11:19:58.425Z,16.50
2023-04-15T11:21:03.580Z,16.60
2023-04-15T11:22:09.717Z,16.60
2023-04-15T11:23:15.137Z,16.70
2023-04-15T11:24:29.408Z,16.70
2023-04-15T11:25:35.989Z,16.80
2023-04-15T11:26:40.107Z,16.80
2023-04-15T11:27:42.188Z,16.80
2023-04-15T11:28:45.802Z,16.80
2023-04-15T11:29:47.659Z,16.80
2023-04-15T11:30:49.510Z,16.80
2023-04-15T11:31:51.785Z,16.80
2023-04-15T11:32:59.156Z,16.80
2023-04-15T11:34:03.028Z,16.80
2023-04-15T11:35:05.074Z,16.80
2023-04-15T11:36:07.001Z,16.70
2023-04-15T11:37:08.922Z,16.70
2023-04-15T11:38:14.173Z,16.70
2023-04-15T11:39:16.811Z,16.70
2023-04-15T11:40:24.179Z,16.70
2023-04-15T11:41:26.130Z,16.60
2023-04-15T11:42:36.242Z,16.60
2023-04-15T11:43:44.930Z,16.50
2023-04-15T11:44:46.782Z,16.40
2023-04-15T11:46:00.832Z,16.40
2023-04-15T11:47:02.560Z,16.40
2023-04-15T11:48:13.588Z,16.40
2023-04-15T11:49:31.292Z,16.30
2023-04-15T11:50:33.186Z,16.30
2023-04-15T11:51:35.505Z,16.30
2023-04-15T11:52:37.222Z,16.20
2023-04-15T11:53:46.233Z,16.20
2023-04-15T11:54:48.009Z,16.20
2023-04-15T11:55:52.115Z,16.20
2023-04-15T11:56:54.613Z,16.10
2023-04-15T11:58:22.636Z,16.20
2023-04-15T11:59:28.179Z,16.20
2023-04-15T12:00:35.404Z,16.20
2023-04-15T12:01:39.939Z,16.30
2023-04-15T12:02:42.318Z,16.40
2023-04-15T12:03:47.129Z,16.40
2023-04-15T12:04:49.249Z,16.50
2023-04-15T12:06:14.236Z,16.50
2023-04-15T12:07:16.705Z,16.60
2023-04-15T12:08:18.424Z,16.70
2023-04-15T12:09:20.959Z,16.70
2023-04-15T12:10:24.934Z,16.80
2023-04-15T12:11:26.702Z,16.80
2023-04-15T12:12:31.238Z,16.80
2023-04-15T12:13:33.259Z,16.80
2023-04-15T12:14:34.964Z,16.70
2023-04-15T12:15:39.292Z,16.70
2023-04-15T12:16:48.879Z,16.60
2023-04-15T12:17:55.136Z,16.50
2023-04-15T12:18:59.421Z,16.40
2023-04-15T12:20:01.129Z,16.40
2023-04-15T12:21:12.535Z,16.30
2023-04-15T12:22:17.078Z,16.20
2023-04-15T12:23:21.645Z,16.10
2023-04-15T12:24:25.656Z,16.00
2023-04-15T12:25:35.619Z,16.00
2023-04-15T12:26:51.992Z,15.90
2023-04-15T12:27:55.075Z,15.80
2023-04-15T12:29:01.952Z,15.80
2023-04-15T12:30:05.373Z,15.70
2023-04-15T12:31:08.892Z,15.60
2023-04-15T12:32:19.836Z,15.40
2023-04-15T12:33:22.018Z,15.20
2023-04-15T12:34:31.992Z,15.10
2023-04-15T12:35:34.060Z,14.90
2023-04-15T12:36:38.766Z,14.70
2023-04-15T12:37:40.635Z,14.50
2023-04-15T12:38:42.692Z,14.40
2023-04-15T12:39:48.827Z,14.30
2023-04-15T12:40:50.623Z,14.20
2023-04-15T12:41:52.934Z,14.20
2023-04-15T12:42:56.569Z,14.00
2023-04-15T12:43:58.945Z,14.00
2023-04-15T12:45:01.130Z,13.90
2023-04-15T12:46:03.233Z,13.80
2023-04-15T12:47:05.686Z,13.80
2023-04-15T12:48:09.504Z,13.70
2023-04-15T12:49:11.586Z,13.70
2023-04-15T12:50:13.512Z,13.60
2023-04-15T12:51:15.536Z,13.60
2023-04-15T12:52:17.484Z,13.50
2023-04-15T12:53:19.622Z,13.50
2023-04-15T12:54:22.336Z,13.50
2023-04-15T12:55:24.275Z,13.50
2023-04-15T12:56:27.141Z,13.60
2023-04-15T12:57:29.082Z,13.60
2023-04-15T12:58:30.856Z,13.70
2023-04-15T12:59:32.648Z,13.70
2023-04-15T13:00:35.624Z,13.80
2023-04-15T13:01:37.424Z,13.80
2023-04-15T13:02:39.807Z,13.90
2023-04-15T13:03:43.454Z,13.90
2023-04-15T13:04:45.433Z,13.90
2023-04-15T13:05:47.121Z,14.00
2023-04-15T13:06:48.997Z,14.00
2023-04-15T13:07:50.669Z,14.10
2023-04-15T13:08:58.384Z,14.10
2023-04-15T13:10:00.575Z,14.10
2023-04-15T13:11:02.271Z,14.20
2023-04-15T13:12:05.382Z,14.20
2023-04-15T13:13:07.105Z,14.20
2023-04-15T13:14:11.510Z,14.30
2023-04-15T13:15:13.362Z,14.30
2023-04-15T13:16:15.262Z,14.40
2023-04-15T13:17:18.980Z,14.40
2023-04-15T13:18:21.009Z,14.40
2023-04-15T13:19:23.061Z,14.40
2023-04-15T13:20:26.948Z,14.50
2023-04-15T13:21:28.916Z,14.50
2023-04-15T13:22:31.841Z,14.50
2023-04-15T13:23:34.022Z,14.60
2023-04-15T13:24:36.367Z,14.60
2023-04-15T13:25:39.822Z,14.60
2023-04-15T13:26:43.271Z,14.70
2023-04-15T13:27:44.982Z,14.70
2023-04-15T13:28:46.915Z,14.70
2023-04-15T13:29:48.581Z,14.70
2023-04-15T13:30:50.508Z,14.80
2023-04-15T13:31:52.364Z,14.80
2023-04-15T13:32:54.526Z,14.80
2023-04-15T13:33:59.526Z,14.90
2023-04-15T13:35:01.466Z,14.90
2023-04-15T13:36:03.251Z,14.90
2023-04-15T13:37:09.021Z,15.00
2023-04-15T13:38:10.935Z,15.00
2023-04-15T13:39:12.575Z,15.10
2023-04-15T13:40:14.288Z,15.10
2023-04-15T13:41:17.061Z,15.20
2023-04-15T13:42:18.769Z,15.20
2023-04-15T13:43:21.745Z,15.30
2023-04-15T13:44:23.368Z,15.30
2023-04-15T13:45:25.008Z,15.30